Daily Weather Data

ICAR-Vivekananda Parvatiya Krishi Anusandhan Sansthan, Almora

Month:    December 2017 to January 2018

 Date

Max. Temp. (0 C)

Min. Temp. (0 C)

Rainfall (mm)

Max. RH(%) Min. RH(%) Wind Speed (mt/s) Wind Dir. Dew Point (0 C)
01/12/2017 18.5 6.5 0 68 60 0.09 158 3.7
02/12/2017 18.6 6.6 0 73 65 0.03 181 4.6
03/12/2017 15.1 6.5 0 81 76 0.04 195 6.4
04/12/2017 14 6.3 0 76.4 72.4 0.04 157 5.5
05/12/2017 16.1 8.7 0 70 59 0.17 154 5.5
06/12/2017 20.3 9.7 0 68 62 0.07 145 6.4
07/12/2017 20 10.7 0 64 58 0.11 145 6.6
08/12/2017 20.8 9.4 0 76 71 0.03 154 8.4
09/12/2017 19 9.6 0 84 79 0.13 165 9.6
10/12/2017 18.6 8.1 0 85 81 0.07 162 8.7
11/12/2017 19.7 9.3 0 73 66 0.13 165 7
12/12/2017 14.9 8.5 3.8 78 73 0.23 157 7.6
13/12/2017 15.7 7.7 0 84 79 0.15 156 7.3
14/12/2017 18.2 6.6 0 80 74 0.1 178 5.8
15/12/2017 17.7 6.6 0 52 43 0.11 165 0.47
16/12/2017 17.8 6.4 0 43 35 0.08 136 3.1
17/12/2017 19.9 6.3 0 45 38 0.12 178 2.5
18/12/2017 22.8 8.3 0 39 32 0.14 164 3.1
19/12/2017 20.9 9.3 0 44 36 0.06 176 0.5
20/12/2017 19.1 10.3 0 43.7 37.6 0.11 147 0.48
21/12/2017 18.7 9.2 0 70.7 65.1 0.02 153 5.9
22/12/2017 18.8 8.1 0 61 54 0.09 174 3.6
23/12/2017 19.3 7.6 0 45 40 0.04 167 0.5
24/12/2017 18.5 7.5 0 70 68 0.03 168 1.7
25/12/2017 15.9 5.2 0 70 72 0.01 171 0.6
26/12/2017 17.8 6.4 0 73 67 0.03 160 4.1
27/12/2017 17.9 7.3 0 71 64 0.12 177 4.6
28/12/2017 19.2 7.3 0 73 67 0.03 145 5.3
29/12/2017 18.7 7.7 0 67 63 0.02 164 4.7
30/12/2017 17.4 6.2 0 71 62 0.05 179 3.7
31/12/2017 16.3 5.5 0 65 56 0.13 167 1.4
01/01/2018 13.4 4 0 66 58 0.3 152 0.6
02/01/2018 14.0 2.9 0 72 65 0.08 169 0.7
03/01/2018 16.1 3.4 0 64.6 58.5 0.03 175 0.2
04/01/2018 15.9 4.6 0 51.3 45.7 0.10 163 1.9
05/01/2018 15.6 3.9 0 47.1 39.8 0.05 148 -4.2
06/01/2018 14.3 2.7 0 46.7 40.7 0.05 149 -4.9
07/01/2018 14.1 2.1 0 55.2 48.8 0.06 165.7 -3.1
08/01/2018 16.8 4.2 0 49.8 43.7 0.07 169.4 -3.4
09/01/2018 18.5 5.1 0 45.3 39.8 0.06 157.3 -3.4
10/01/2018 20.5 7.5 0 37.0 32.0 0.10 166.4 -4.3
11/01/2018 21.6 8.5 0 30.9 25.6 0.15 152 -5.8
12/01/2018 21.2 10.2 0 33.4 27.3 0.02 186 -3.8
13/01/2018 15.8 3.9 0 55.2 48.4 0.04 169 0.42
14/01/2018 17.9 5.2 0 65.4 54.8 0.02 163 1.6
15/01/2018 18.1 4.6 0 62 55 0.09 154 0.87
16/01/2018 20.4 7.1 0 45 39 0.10 169 -1.9